sensor_id;sensor_type;location;lat;lon;timestamp;P1;durP1;ratioP1;P2;durP2;ratioP2
48403;SDS011;34202;52.536;6.042;2023-03-01T00:04:42;15.80;;;11.70;;
48403;SDS011;34202;52.536;6.042;2023-03-01T00:09:42;13.80;;;11.60;;
48403;SDS011;34202;52.536;6.042;2023-03-01T00:14:45;21.80;;;14.30;;
48403;SDS011;34202;52.536;6.042;2023-03-01T00:19:46;20.20;;;14.00;;
48403;SDS011;34202;52.536;6.042;2023-03-01T00:24:46;16.40;;;13.40;;
48403;SDS011;34202;52.536;6.042;2023-03-01T00:29:46;17.00;;;11.80;;
48403;SDS011;34202;52.536;6.042;2023-03-01T00:34:47;16.70;;;13.60;;
48403;SDS011;34202;52.536;6.042;2023-03-01T00:39:54;20.70;;;15.30;;
48403;SDS011;34202;52.536;6.042;2023-03-01T00:44:54;21.60;;;14.80;;
48403;SDS011;34202;52.536;6.042;2023-03-01T00:49:54;24.00;;;14.90;;
48403;SDS011;34202;52.536;6.042;2023-03-01T00:54:55;23.20;;;15.10;;
48403;SDS011;34202;52.536;6.042;2023-03-01T00:59:55;19.40;;;14.00;;
48403;SDS011;34202;52.536;6.042;2023-03-01T01:04:55;19.70;;;15.50;;
48403;SDS011;34202;52.536;6.042;2023-03-01T01:09:56;27.40;;;16.60;;
48403;SDS011;34202;52.536;6.042;2023-03-01T01:14:56;23.70;;;16.30;;
48403;SDS011;34202;52.536;6.042;2023-03-01T01:19:56;25.70;;;17.60;;
48403;SDS011;34202;52.536;6.042;2023-03-01T01:24:57;24.50;;;16.10;;
48403;SDS011;34202;52.536;6.042;2023-03-01T01:29:57;26.90;;;18.40;;
48403;SDS011;34202;52.536;6.042;2023-03-01T01:34:58;20.50;;;16.10;;
48403;SDS011;34202;52.536;6.042;2023-03-01T01:39:58;25.30;;;17.20;;
48403;SDS011;34202;52.536;6.042;2023-03-01T01:50:40;18.60;;;12.50;;
48403;SDS011;34202;52.536;6.042;2023-03-01T01:55:42;28.40;;;16.60;;
48403;SDS011;34202;52.536;6.042;2023-03-01T02:00:45;22.70;;;14.60;;
48403;SDS011;34202;52.536;6.042;2023-03-01T02:05:49;26.20;;;19.00;;
48403;SDS011;34202;52.536;6.042;2023-03-01T02:10:57;32.50;;;20.60;;
48403;SDS011;34202;52.536;6.042;2023-03-01T02:16:02;22.30;;;15.60;;
48403;SDS011;34202;52.536;6.042;2023-03-01T02:26:06;25.70;;;16.60;;
48403;SDS011;34202;52.536;6.042;2023-03-01T02:31:17;24.90;;;15.90;;
48403;SDS011;34202;52.536;6.042;2023-03-01T02:36:43;24.10;;;17.20;;
48403;SDS011;34202;52.536;6.042;2023-03-01T02:41:52;28.50;;;17.10;;
48403;SDS011;34202;52.536;6.042;2023-03-01T02:46:55;29.40;;;17.50;;
48403;SDS011;34202;52.536;6.042;2023-03-01T02:52:04;20.90;;;15.30;;
48403;SDS011;34202;52.536;6.042;2023-03-01T02:57:16;30.80;;;18.30;;
48403;SDS011;34202;52.536;6.042;2023-03-01T03:02:25;24.70;;;16.30;;
48403;SDS011;34202;52.536;6.042;2023-03-01T03:07:39;23.80;;;16.40;;
48403;SDS011;34202;52.536;6.042;2023-03-01T03:12:42;31.40;;;19.60;;
48403;SDS011;34202;52.536;6.042;2023-03-01T03:17:42;29.80;;;20.40;;
48403;SDS011;34202;52.536;6.042;2023-03-01T03:22:43;30.80;;;19.90;;
48403;SDS011;34202;52.536;6.042;2023-03-01T03:27:44;32.40;;;21.50;;
48403;SDS011;34202;52.536;6.042;2023-03-01T03:32:47;32.80;;;21.60;;
48403;SDS011;34202;52.536;6.042;2023-03-01T03:37:52;29.80;;;19.70;;
48403;SDS011;34202;52.536;6.042;2023-03-01T03:43:05;31.10;;;19.90;;
48403;SDS011;34202;52.536;6.042;2023-03-01T03:48:09;54.50;;;21.90;;
48403;SDS011;34202;52.536;6.042;2023-03-01T03:53:10;43.40;;;22.10;;
48403;SDS011;34202;52.536;6.042;2023-03-01T03:58:11;37.60;;;20.70;;
48403;SDS011;34202;52.536;6.042;2023-03-01T04:03:13;50.50;;;15.60;;
48403;SDS011;34202;52.536;6.042;2023-03-01T04:08:17;48.60;;;18.20;;
48403;SDS011;34202;52.536;6.042;2023-03-01T04:13:22;62.70;;;21.70;;
48403;SDS011;34202;52.536;6.042;2023-03-01T04:18:25;56.90;;;23.20;;
48403;SDS011;34202;52.536;6.042;2023-03-01T04:23:25;34.60;;;20.40;;
48403;SDS011;34202;52.536;6.042;2023-03-01T04:28:36;35.00;;;21.80;;
48403;SDS011;34202;52.536;6.042;2023-03-01T04:33:40;27.00;;;18.20;;
48403;SDS011;34202;52.536;6.042;2023-03-01T04:38:46;47.70;;;20.70;;
48403;SDS011;34202;52.536;6.042;2023-03-01T04:43:49;28.40;;;19.20;;
48403;SDS011;34202;52.536;6.042;2023-03-01T04:48:50;22.70;;;13.90;;
48403;SDS011;34202;52.536;6.042;2023-03-01T04:53:50;33.50;;;17.70;;
48403;SDS011;34202;52.536;6.042;2023-03-01T04:58:52;44.50;;;15.90;;
48403;SDS011;34202;52.536;6.042;2023-03-01T05:03:53;46.10;;;18.00;;
48403;SDS011;34202;52.536;6.042;2023-03-01T05:08:54;29.60;;;19.70;;
48403;SDS011;34202;52.536;6.042;2023-03-01T05:13:54;64.40;;;22.20;;
48403;SDS011;34202;52.536;6.042;2023-03-01T05:18:55;25.80;;;18.90;;
48403;SDS011;34202;52.536;6.042;2023-03-01T05:23:56;63.20;;;19.50;;
48403;SDS011;34202;52.536;6.042;2023-03-01T05:28:57;46.40;;;19.40;;
48403;SDS011;34202;52.536;6.042;2023-03-01T05:33:58;31.20;;;17.20;;
48403;SDS011;34202;52.536;6.042;2023-03-01T05:38:58;73.90;;;21.80;;
48403;SDS011;34202;52.536;6.042;2023-03-01T05:43:59;44.80;;;17.90;;
48403;SDS011;34202;52.536;6.042;2023-03-01T05:49:00;23.40;;;14.10;;
48403;SDS011;34202;52.536;6.042;2023-03-01T05:54:00;32.80;;;18.20;;
48403;SDS011;34202;52.536;6.042;2023-03-01T05:59:01;29.70;;;18.20;;
48403;SDS011;34202;52.536;6.042;2023-03-01T06:04:03;29.40;;;16.40;;
48403;SDS011;34202;52.536;6.042;2023-03-01T06:09:05;24.40;;;17.30;;
48403;SDS011;34202;52.536;6.042;2023-03-01T06:14:07;24.20;;;16.80;;
48403;SDS011;34202;52.536;6.042;2023-03-01T06:19:08;24.10;;;17.40;;
48403;SDS011;34202;52.536;6.042;2023-03-01T06:24:08;19.60;;;14.00;;
48403;SDS011;34202;52.536;6.042;2023-03-01T06:29:09;20.70;;;15.10;;
48403;SDS011;34202;52.536;6.042;2023-03-01T06:34:09;25.10;;;18.50;;
48403;SDS011;34202;52.536;6.042;2023-03-01T06:39:13;23.60;;;16.80;;
48403;SDS011;34202;52.536;6.042;2023-03-01T06:44:13;24.30;;;16.00;;
48403;SDS011;34202;52.536;6.042;2023-03-01T06:49:14;24.30;;;17.40;;
48403;SDS011;34202;52.536;6.042;2023-03-01T06:54:16;23.30;;;18.20;;
48403;SDS011;34202;52.536;6.042;2023-03-01T06:59:18;27.00;;;19.10;;
48403;SDS011;34202;52.536;6.042;2023-03-01T07:04:19;28.70;;;19.70;;
48403;SDS011;34202;52.536;6.042;2023-03-01T07:09:19;26.30;;;17.70;;
48403;SDS011;34202;52.536;6.042;2023-03-01T07:14:21;20.80;;;12.70;;
48403;SDS011;34202;52.536;6.042;2023-03-01T07:19:24;25.00;;;17.00;;
48403;SDS011;34202;52.536;6.042;2023-03-01T07:24:24;28.20;;;20.40;;
48403;SDS011;34202;52.536;6.042;2023-03-01T07:29:25;30.10;;;19.70;;
48403;SDS011;34202;52.536;6.042;2023-03-01T07:34:25;27.20;;;18.60;;
48403;SDS011;34202;52.536;6.042;2023-03-01T07:39:26;28.30;;;19.80;;
48403;SDS011;34202;52.536;6.042;2023-03-01T07:44:26;33.70;;;22.40;;
48403;SDS011;34202;52.536;6.042;2023-03-01T07:49:28;33.70;;;21.50;;
48403;SDS011;34202;52.536;6.042;2023-03-01T07:54:28;38.30;;;23.60;;
48403;SDS011;34202;52.536;6.042;2023-03-01T07:59:28;30.40;;;18.20;;
48403;SDS011;34202;52.536;6.042;2023-03-01T08:04:29;28.50;;;18.50;;
48403;SDS011;34202;52.536;6.042;2023-03-01T08:09:30;33.00;;;19.90;;
48403;SDS011;34202;52.536;6.042;2023-03-01T08:14:31;22.50;;;14.90;;
48403;SDS011;34202;52.536;6.042;2023-03-01T08:19:32;29.30;;;18.80;;
48403;SDS011;34202;52.536;6.042;2023-03-01T08:24:33;28.80;;;18.90;;
48403;SDS011;34202;52.536;6.042;2023-03-01T08:29:34;30.40;;;19.10;;
48403;SDS011;34202;52.536;6.042;2023-03-01T08:34:34;25.50;;;16.80;;
48403;SDS011;34202;52.536;6.042;2023-03-01T08:39:35;31.90;;;21.50;;
48403;SDS011;34202;52.536;6.042;2023-03-01T08:44:36;28.00;;;19.50;;
48403;SDS011;34202;52.536;6.042;2023-03-01T08:49:36;34.30;;;23.30;;
48403;SDS011;34202;52.536;6.042;2023-03-01T08:54:36;27.40;;;18.00;;
48403;SDS011;34202;52.536;6.042;2023-03-01T08:59:37;33.70;;;23.20;;
48403;SDS011;34202;52.536;6.042;2023-03-01T09:04:37;40.80;;;25.60;;
48403;SDS011;34202;52.536;6.042;2023-03-01T09:09:38;33.60;;;23.50;;
48403;SDS011;34202;52.536;6.042;2023-03-01T09:14:38;33.10;;;25.60;;
48403;SDS011;34202;52.536;6.042;2023-03-01T09:19:38;33.80;;;23.70;;
48403;SDS011;34202;52.536;6.042;2023-03-01T09:24:39;28.10;;;20.90;;
48403;SDS011;34202;52.536;6.042;2023-03-01T09:29:40;24.70;;;18.80;;
48403;SDS011;34202;52.536;6.042;2023-03-01T09:34:41;28.00;;;18.60;;
48403;SDS011;34202;52.536;6.042;2023-03-01T09:40:00;22.20;;;15.60;;
48403;SDS011;34202;52.536;6.042;2023-03-01T09:45:04;23.80;;;15.40;;
48403;SDS011;34202;52.536;6.042;2023-03-01T09:50:16;20.00;;;12.90;;
48403;SDS011;34202;52.536;6.042;2023-03-01T09:55:26;16.70;;;11.90;;
48403;SDS011;34202;52.536;6.042;2023-03-01T10:05:59;10.90;;;8.40;;
48403;SDS011;34202;52.536;6.042;2023-03-01T10:11:42;8.40;;;7.30;;
48403;SDS011;34202;52.536;6.042;2023-03-01T10:21:46;8.80;;;5.80;;
48403;SDS011;34202;52.536;6.042;2023-03-01T10:26:51;6.20;;;4.00;;
48403;SDS011;34202;52.536;6.042;2023-03-01T10:31:56;6.50;;;4.10;;
48403;SDS011;34202;52.536;6.042;2023-03-01T10:36:58;5.40;;;3.50;;
48403;SDS011;34202;52.536;6.042;2023-03-01T10:42:19;5.40;;;3.50;;
48403;SDS011;34202;52.536;6.042;2023-03-01T10:47:26;8.30;;;4.30;;
48403;SDS011;34202;52.536;6.042;2023-03-01T10:52:29;7.00;;;4.10;;
48403;SDS011;34202;52.536;6.042;2023-03-01T10:57:37;8.90;;;4.90;;
48403;SDS011;34202;52.536;6.042;2023-03-01T11:02:40;8.30;;;4.90;;
48403;SDS011;34202;52.536;6.042;2023-03-01T11:07:48;5.90;;;4.20;;
48403;SDS011;34202;52.536;6.042;2023-03-01T11:18:20;6.30;;;3.60;;
48403;SDS011;34202;52.536;6.042;2023-03-01T11:23:21;7.80;;;4.70;;
48403;SDS011;34202;52.536;6.042;2023-03-01T11:28:22;8.20;;;4.40;;
48403;SDS011;34202;52.536;6.042;2023-03-01T11:33:42;7.70;;;4.90;;
48403;SDS011;34202;52.536;6.042;2023-03-01T11:38:48;8.50;;;4.30;;
48403;SDS011;34202;52.536;6.042;2023-03-01T11:43:53;6.70;;;4.40;;
48403;SDS011;34202;52.536;6.042;2023-03-01T11:54:34;8.80;;;6.00;;
48403;SDS011;34202;52.536;6.042;2023-03-01T12:10:57;10.80;;;7.30;;
48403;SDS011;34202;52.536;6.042;2023-03-01T12:52:58;7.80;;;5.60;;
48403;SDS011;34202;52.536;6.042;2023-03-01T12:58:08;7.40;;;4.80;;
48403;SDS011;34202;52.536;6.042;2023-03-01T13:09:03;8.30;;;5.30;;
48403;SDS011;34202;52.536;6.042;2023-03-01T13:19:25;7.00;;;4.40;;
48403;SDS011;34202;52.536;6.042;2023-03-01T13:24:39;11.20;;;5.00;;
48403;SDS011;34202;52.536;6.042;2023-03-01T13:29:59;8.40;;;4.60;;
48403;SDS011;34202;52.536;6.042;2023-03-01T13:45:32;6.00;;;3.80;;
48403;SDS011;34202;52.536;6.042;2023-03-01T13:50:46;6.50;;;4.20;;
48403;SDS011;34202;52.536;6.042;2023-03-01T13:55:52;7.30;;;5.10;;
48403;SDS011;34202;52.536;6.042;2023-03-01T14:01:05;10.10;;;4.90;;
48403;SDS011;34202;52.536;6.042;2023-03-01T14:06:08;8.00;;;5.20;;
48403;SDS011;34202;52.536;6.042;2023-03-01T14:27:23;9.70;;;5.60;;
48403;SDS011;34202;52.536;6.042;2023-03-01T14:32:27;6.30;;;4.60;;
48403;SDS011;34202;52.536;6.042;2023-03-01T14:37:30;7.00;;;4.80;;
48403;SDS011;34202;52.536;6.042;2023-03-01T14:42:34;7.10;;;4.70;;
48403;SDS011;34202;52.536;6.042;2023-03-01T14:47:36;7.90;;;5.30;;
48403;SDS011;34202;52.536;6.042;2023-03-01T14:52:40;7.10;;;5.20;;
48403;SDS011;34202;52.536;6.042;2023-03-01T14:57:46;9.80;;;4.90;;
48403;SDS011;34202;52.536;6.042;2023-03-01T15:02:48;6.80;;;4.00;;
48403;SDS011;34202;52.536;6.042;2023-03-01T15:07:52;6.10;;;4.00;;
48403;SDS011;34202;52.536;6.042;2023-03-01T15:12:54;7.60;;;5.20;;
48403;SDS011;34202;52.536;6.042;2023-03-01T15:17:55;7.70;;;5.10;;
48403;SDS011;34202;52.536;6.042;2023-03-01T15:22:58;6.60;;;4.40;;
48403;SDS011;34202;52.536;6.042;2023-03-01T15:28:00;8.80;;;4.90;;
48403;SDS011;34202;52.536;6.042;2023-03-01T15:38:31;7.40;;;4.70;;
48403;SDS011;34202;52.536;6.042;2023-03-01T15:43:50;8.60;;;5.30;;
48403;SDS011;34202;52.536;6.042;2023-03-01T15:48:55;6.20;;;4.50;;
48403;SDS011;34202;52.536;6.042;2023-03-01T15:53:58;9.30;;;5.90;;
48403;SDS011;34202;52.536;6.042;2023-03-01T15:59:02;8.10;;;5.10;;
48403;SDS011;34202;52.536;6.042;2023-03-01T16:04:03;7.30;;;5.40;;
48403;SDS011;34202;52.536;6.042;2023-03-01T16:09:03;9.30;;;5.30;;
48403;SDS011;34202;52.536;6.042;2023-03-01T16:14:03;8.30;;;5.90;;
48403;SDS011;34202;52.536;6.042;2023-03-01T16:19:04;13.10;;;6.00;;
48403;SDS011;34202;52.536;6.042;2023-03-01T16:24:04;6.10;;;4.60;;
48403;SDS011;34202;52.536;6.042;2023-03-01T16:29:06;9.40;;;6.20;;
48403;SDS011;34202;52.536;6.042;2023-03-01T16:34:06;9.00;;;6.40;;
48403;SDS011;34202;52.536;6.042;2023-03-01T16:39:06;14.00;;;8.50;;
48403;SDS011;34202;52.536;6.042;2023-03-01T16:44:07;11.20;;;8.20;;
48403;SDS011;34202;52.536;6.042;2023-03-01T16:49:07;12.70;;;8.50;;
48403;SDS011;34202;52.536;6.042;2023-03-01T16:54:08;15.20;;;9.00;;
48403;SDS011;34202;52.536;6.042;2023-03-01T16:59:09;13.50;;;9.20;;
48403;SDS011;34202;52.536;6.042;2023-03-01T17:04:10;12.20;;;7.60;;
48403;SDS011;34202;52.536;6.042;2023-03-01T17:09:11;10.00;;;7.40;;
48403;SDS011;34202;52.536;6.042;2023-03-01T17:14:12;13.00;;;8.20;;
48403;SDS011;34202;52.536;6.042;2023-03-01T17:19:12;10.30;;;7.00;;
48403;SDS011;34202;52.536;6.042;2023-03-01T17:24:17;12.60;;;8.30;;
48403;SDS011;34202;52.536;6.042;2023-03-01T17:29:18;14.90;;;8.70;;
48403;SDS011;34202;52.536;6.042;2023-03-01T17:34:18;14.90;;;9.20;;
48403;SDS011;34202;52.536;6.042;2023-03-01T17:39:19;11.60;;;8.90;;
48403;SDS011;34202;52.536;6.042;2023-03-01T17:49:25;13.60;;;8.70;;
48403;SDS011;34202;52.536;6.042;2023-03-01T17:54:25;14.70;;;8.40;;
48403;SDS011;34202;52.536;6.042;2023-03-01T17:59:26;13.60;;;8.70;;
48403;SDS011;34202;52.536;6.042;2023-03-01T18:04:30;14.50;;;8.70;;
48403;SDS011;34202;52.536;6.042;2023-03-01T18:09:31;15.10;;;9.60;;
48403;SDS011;34202;52.536;6.042;2023-03-01T18:14:31;12.70;;;8.90;;
48403;SDS011;34202;52.536;6.042;2023-03-01T18:19:33;14.30;;;8.10;;
48403;SDS011;34202;52.536;6.042;2023-03-01T18:24:34;11.20;;;6.70;;
48403;SDS011;34202;52.536;6.042;2023-03-01T18:29:36;15.50;;;9.30;;
48403;SDS011;34202;52.536;6.042;2023-03-01T18:34:37;14.40;;;8.40;;
48403;SDS011;34202;52.536;6.042;2023-03-01T18:39:38;12.50;;;8.60;;
48403;SDS011;34202;52.536;6.042;2023-03-01T18:44:40;14.00;;;8.90;;
48403;SDS011;34202;52.536;6.042;2023-03-01T18:49:41;13.50;;;8.30;;
48403;SDS011;34202;52.536;6.042;2023-03-01T18:54:41;15.20;;;8.60;;
48403;SDS011;34202;52.536;6.042;2023-03-01T18:59:41;12.90;;;9.70;;
48403;SDS011;34202;52.536;6.042;2023-03-01T19:04:42;12.20;;;8.80;;
48403;SDS011;34202;52.536;6.042;2023-03-01T19:09:42;12.70;;;8.50;;
48403;SDS011;34202;52.536;6.042;2023-03-01T19:14:43;15.80;;;9.40;;
48403;SDS011;34202;52.536;6.042;2023-03-01T19:19:43;15.40;;;9.70;;
48403;SDS011;34202;52.536;6.042;2023-03-01T19:24:44;14.10;;;9.80;;
48403;SDS011;34202;52.536;6.042;2023-03-01T19:29:44;18.30;;;11.80;;
48403;SDS011;34202;52.536;6.042;2023-03-01T19:34:44;16.90;;;12.30;;
48403;SDS011;34202;52.536;6.042;2023-03-01T19:39:45;18.60;;;11.10;;
48403;SDS011;34202;52.536;6.042;2023-03-01T19:44:47;17.90;;;11.20;;
48403;SDS011;34202;52.536;6.042;2023-03-01T19:49:47;19.30;;;12.90;;
48403;SDS011;34202;52.536;6.042;2023-03-01T19:54:47;23.60;;;14.50;;
48403;SDS011;34202;52.536;6.042;2023-03-01T19:59:48;22.70;;;12.40;;
48403;SDS011;34202;52.536;6.042;2023-03-01T20:04:48;18.70;;;11.30;;
48403;SDS011;34202;52.536;6.042;2023-03-01T20:09:48;19.80;;;12.50;;
48403;SDS011;34202;52.536;6.042;2023-03-01T20:14:49;21.30;;;13.70;;
48403;SDS011;34202;52.536;6.042;2023-03-01T20:19:51;22.00;;;13.80;;
48403;SDS011;34202;52.536;6.042;2023-03-01T20:24:52;21.00;;;13.30;;
48403;SDS011;34202;52.536;6.042;2023-03-01T20:29:52;20.70;;;14.30;;
48403;SDS011;34202;52.536;6.042;2023-03-01T20:34:52;24.00;;;14.70;;
48403;SDS011;34202;52.536;6.042;2023-03-01T20:39:55;24.30;;;15.60;;
48403;SDS011;34202;52.536;6.042;2023-03-01T20:44:56;30.90;;;18.10;;
48403;SDS011;34202;52.536;6.042;2023-03-01T20:49:56;26.70;;;17.50;;
48403;SDS011;34202;52.536;6.042;2023-03-01T20:55:00;29.30;;;18.20;;
48403;SDS011;34202;52.536;6.042;2023-03-01T21:00:00;32.80;;;20.90;;
48403;SDS011;34202;52.536;6.042;2023-03-01T21:05:01;27.90;;;19.10;;
48403;SDS011;34202;52.536;6.042;2023-03-01T21:10:01;28.80;;;19.80;;
48403;SDS011;34202;52.536;6.042;2023-03-01T21:15:02;39.70;;;22.80;;
48403;SDS011;34202;52.536;6.042;2023-03-01T21:20:04;33.10;;;21.50;;
48403;SDS011;34202;52.536;6.042;2023-03-01T21:25:05;34.90;;;20.50;;
48403;SDS011;34202;52.536;6.042;2023-03-01T21:30:06;35.00;;;21.70;;
48403;SDS011;34202;52.536;6.042;2023-03-01T21:35:07;35.60;;;24.10;;
48403;SDS011;34202;52.536;6.042;2023-03-01T21:40:08;37.60;;;23.50;;
48403;SDS011;34202;52.536;6.042;2023-03-01T21:45:09;38.90;;;25.20;;
48403;SDS011;34202;52.536;6.042;2023-03-01T21:50:10;41.30;;;24.60;;
48403;SDS011;34202;52.536;6.042;2023-03-01T21:55:11;40.00;;;25.70;;
48403;SDS011;34202;52.536;6.042;2023-03-01T22:00:12;41.50;;;26.80;;
48403;SDS011;34202;52.536;6.042;2023-03-01T22:05:15;41.80;;;24.80;;
48403;SDS011;34202;52.536;6.042;2023-03-01T22:10:16;37.40;;;22.70;;
48403;SDS011;34202;52.536;6.042;2023-03-01T22:15:26;43.00;;;26.30;;
48403;SDS011;34202;52.536;6.042;2023-03-01T22:20:26;39.50;;;24.60;;
48403;SDS011;34202;52.536;6.042;2023-03-01T22:25:27;42.40;;;22.80;;
48403;SDS011;34202;52.536;6.042;2023-03-01T22:30:27;54.60;;;28.30;;
48403;SDS011;34202;52.536;6.042;2023-03-01T22:35:27;49.00;;;25.60;;
48403;SDS011;34202;52.536;6.042;2023-03-01T22:40:28;56.30;;;29.70;;
48403;SDS011;34202;52.536;6.042;2023-03-01T22:45:29;60.70;;;30.90;;
48403;SDS011;34202;52.536;6.042;2023-03-01T22:50:31;46.00;;;26.50;;
48403;SDS011;34202;52.536;6.042;2023-03-01T22:55:31;54.90;;;31.20;;
48403;SDS011;34202;52.536;6.042;2023-03-01T23:00:32;55.50;;;28.80;;
48403;SDS011;34202;52.536;6.042;2023-03-01T23:05:33;59.10;;;32.20;;
48403;SDS011;34202;52.536;6.042;2023-03-01T23:10:38;58.70;;;32.20;;
48403;SDS011;34202;52.536;6.042;2023-03-01T23:15:39;54.00;;;29.80;;
48403;SDS011;34202;52.536;6.042;2023-03-01T23:20:43;63.90;;;33.10;;
48403;SDS011;34202;52.536;6.042;2023-03-01T23:25:56;41.90;;;24.80;;
48403;SDS011;34202;52.536;6.042;2023-03-01T23:30:59;47.00;;;26.10;;
48403;SDS011;34202;52.536;6.042;2023-03-01T23:36:01;60.30;;;34.10;;
48403;SDS011;34202;52.536;6.042;2023-03-01T23:41:01;53.30;;;33.60;;
48403;SDS011;34202;52.536;6.042;2023-03-01T23:46:02;53.00;;;31.30;;
48403;SDS011;34202;52.536;6.042;2023-03-01T23:51:05;56.20;;;33.90;;
48403;SDS011;34202;52.536;6.042;2023-03-01T23:56:06;48.50;;;25.60;;
